createdAt,value
2023-03-01T00:01:53.286Z,83.50
2023-03-01T00:04:21.950Z,84.34
2023-03-01T00:06:50.810Z,84.25
2023-03-01T00:09:19.721Z,83.57
2023-03-01T00:11:48.671Z,83.82
2023-03-01T00:14:20.581Z,83.47
2023-03-01T00:16:49.555Z,83.37
2023-03-01T00:19:20.914Z,83.27
2023-03-01T00:21:50.398Z,82.71
2023-03-01T00:24:19.008Z,82.55
2023-03-01T00:26:48.424Z,82.98
2023-03-01T00:29:17.029Z,83.14
2023-03-01T00:31:45.759Z,82.78
2023-03-01T00:34:14.339Z,83.23
2023-03-01T00:36:43.298Z,82.29
2023-03-01T00:39:17.331Z,82.32
2023-03-01T00:41:46.471Z,83.06
2023-03-01T00:44:15.060Z,83.18
2023-03-01T00:46:43.847Z,82.42
2023-03-01T00:49:12.620Z,83.04
2023-03-01T00:51:43.259Z,82.55
2023-03-01T00:54:12.387Z,82.50
2023-03-01T00:56:40.991Z,83.06
2023-03-01T00:59:09.765Z,82.55
2023-03-01T01:01:38.678Z,83.13
2023-03-01T01:04:11.050Z,82.73
2023-03-01T01:06:46.375Z,82.53
2023-03-01T01:09:21.129Z,82.53
2023-03-01T01:11:53.290Z,81.95
2023-03-01T01:14:23.524Z,81.88
2023-03-01T01:16:53.046Z,81.56
2023-03-01T01:19:23.383Z,81.53
2023-03-01T01:21:52.968Z,81.63
2023-03-01T01:24:22.024Z,82.21
2023-03-01T01:26:51.972Z,81.84
2023-03-01T01:29:21.370Z,82.05
2023-03-01T01:31:51.285Z,82.03
2023-03-01T01:34:22.901Z,81.87
2023-03-01T01:36:56.001Z,82.87
2023-03-01T01:39:25.907Z,82.99
2023-03-01T01:41:54.836Z,82.99
2023-03-01T01:44:27.340Z,83.22
2023-03-01T01:47:03.986Z,83.17
2023-03-01T01:49:36.140Z,83.21
2023-03-01T01:52:12.796Z,83.10
2023-03-01T01:54:51.819Z,83.09
2023-03-01T01:57:26.391Z,82.78
2023-03-01T02:00:02.489Z,82.97
2023-03-01T02:02:45.174Z,84.15
2023-03-01T02:05:18.447Z,82.92
2023-03-01T02:07:49.013Z,83.19
2023-03-01T02:10:23.820Z,83.33
2023-03-01T02:12:54.431Z,82.91
2023-03-01T02:15:24.086Z,82.82
2023-03-01T02:17:54.159Z,83.09
2023-03-01T02:20:42.895Z,82.98
2023-03-01T02:23:11.949Z,82.98
2023-03-01T02:25:55.732Z,82.79
2023-03-01T02:28:46.182Z,82.70
2023-03-01T02:31:37.984Z,82.26
2023-03-01T02:34:08.714Z,82.68
2023-03-01T02:36:47.924Z,82.57
2023-03-01T02:39:23.288Z,82.45
2023-03-01T02:41:55.536Z,82.31
2023-03-01T02:44:24.983Z,81.90
2023-03-01T02:46:58.377Z,82.33
2023-03-01T02:49:34.088Z,82.12
2023-03-01T02:52:41.222Z,82.39
2023-03-01T02:55:14.815Z,81.51
2023-03-01T02:57:46.325Z,81.67
2023-03-01T03:00:23.710Z,81.34
2023-03-01T03:02:54.484Z,80.44
2023-03-01T03:05:30.432Z,80.23
2023-03-01T03:08:02.168Z,79.96
2023-03-01T03:10:41.333Z,79.50
2023-03-01T03:13:13.673Z,78.78
2023-03-01T03:15:45.101Z,78.12
2023-03-01T03:18:17.603Z,77.51
2023-03-01T03:20:47.442Z,77.37
2023-03-01T03:23:16.250Z,76.86
2023-03-01T03:25:45.191Z,76.98
2023-03-01T03:28:13.720Z,75.72
2023-03-01T03:30:43.696Z,75.40
2023-03-01T03:33:14.120Z,75.71
2023-03-01T03:35:49.509Z,74.84
2023-03-01T03:38:21.628Z,73.94
2023-03-01T03:40:53.060Z,74.33
2023-03-01T03:43:24.823Z,74.29
2023-03-01T03:45:54.147Z,73.92
2023-03-01T03:48:23.051Z,73.74
2023-03-01T03:50:55.713Z,73.72
2023-03-01T03:53:24.895Z,72.32
2023-03-01T03:55:53.654Z,72.24
2023-03-01T03:58:24.489Z,72.22
2023-03-01T04:00:59.095Z,71.66
2023-03-01T04:03:29.669Z,71.30
2023-03-01T04:06:00.972Z,70.84
2023-03-01T04:08:30.696Z,71.45
2023-03-01T04:11:22.927Z,69.99
2023-03-01T04:13:52.890Z,69.93
2023-03-01T04:16:21.658Z,70.94
2023-03-01T04:18:50.516Z,69.92
2023-03-01T04:21:19.421Z,68.98
2023-03-01T04:23:48.322Z,68.23
2023-03-01T04:26:16.953Z,69.00
2023-03-01T04:28:47.669Z,68.54
2023-03-01T04:31:20.109Z,68.67
2023-03-01T04:33:50.568Z,68.12
2023-03-01T04:36:21.200Z,66.91
2023-03-01T04:38:50.791Z,66.02
2023-03-01T04:41:22.906Z,65.98
2023-03-01T04:43:52.348Z,64.93
2023-03-01T04:46:30.166Z,64.11
2023-03-01T04:48:59.535Z,66.06
2023-03-01T04:51:28.122Z,66.74
2023-03-01T04:53:57.367Z,66.39
2023-03-01T04:56:26.060Z,64.95
2023-03-01T04:58:57.974Z,64.89
2023-03-01T05:01:26.806Z,64.31
2023-03-01T05:03:55.408Z,63.49
2023-03-01T05:06:24.409Z,64.84
2023-03-01T05:08:53.006Z,65.47
2023-03-01T05:11:22.045Z,65.65
2023-03-01T05:13:51.843Z,63.79
2023-03-01T05:16:21.891Z,64.73
2023-03-01T05:18:52.252Z,64.85
2023-03-01T05:21:21.066Z,63.34
2023-03-01T05:23:49.904Z,64.48
2023-03-01T05:26:39.417Z,64.13
2023-03-01T05:29:08.597Z,63.96
2023-03-01T05:31:37.120Z,63.29
2023-03-01T05:34:06.592Z,63.12
2023-03-01T05:36:36.600Z,63.51
2023-03-01T05:39:05.536Z,63.05
2023-03-01T05:41:34.056Z,62.17
2023-03-01T05:44:02.927Z,61.86
2023-03-01T05:46:31.736Z,61.93
2023-03-01T05:49:02.035Z,61.83
2023-03-01T05:51:31.264Z,63.66
2023-03-01T05:54:00.049Z,64.47
2023-03-01T05:56:28.913Z,63.68
2023-03-01T05:58:57.938Z,63.77
2023-03-01T06:01:26.511Z,62.84
2023-03-01T06:03:55.312Z,62.49
2023-03-01T06:06:23.910Z,63.10
2023-03-01T06:08:53.771Z,62.98
2023-03-01T06:11:23.504Z,62.29
2023-03-01T06:13:52.475Z,61.39
2023-03-01T06:16:21.121Z,62.57
2023-03-01T06:18:49.978Z,63.50
2023-03-01T06:21:18.578Z,62.29
2023-03-01T06:23:47.492Z,63.12
2023-03-01T06:26:16.110Z,62.24
2023-03-01T06:28:47.969Z,62.04
2023-03-01T06:31:17.155Z,62.34
2023-03-01T06:33:46.532Z,61.38
2023-03-01T06:36:15.361Z,61.94
2023-03-01T06:38:45.010Z,59.39
2023-03-01T06:41:13.769Z,59.93
2023-03-01T06:43:42.463Z,60.03
2023-03-01T06:46:11.196Z,59.75
2023-03-01T06:48:40.072Z,60.60
2023-03-01T06:51:08.907Z,60.54
2023-03-01T06:53:37.447Z,61.27
2023-03-01T06:56:06.512Z,61.21
2023-03-01T06:58:35.163Z,61.60
2023-03-01T07:01:08.636Z,62.21
2023-03-01T07:03:37.489Z,61.34
2023-03-01T07:06:06.237Z,59.76
2023-03-01T07:08:34.974Z,60.40
2023-03-01T07:11:05.477Z,58.76
2023-03-01T07:13:34.771Z,58.98
2023-03-01T07:16:03.425Z,58.90
2023-03-01T07:18:32.283Z,58.05
2023-03-01T07:21:05.557Z,57.43
2023-03-01T07:23:34.554Z,58.79
2023-03-01T07:26:03.477Z,58.68
2023-03-01T07:28:32.618Z,61.52
2023-03-01T07:31:05.577Z,61.95
2023-03-01T07:33:35.004Z,63.79
2023-03-01T07:36:05.495Z,64.05
2023-03-01T07:38:34.643Z,63.82
2023-03-01T07:41:05.231Z,64.49
2023-03-01T07:43:34.272Z,63.82
2023-03-01T07:46:04.197Z,62.84
2023-03-01T07:48:34.523Z,61.86
2023-03-01T07:51:06.251Z,63.24
2023-03-01T07:53:38.730Z,61.89
2023-03-01T07:56:11.121Z,60.17
2023-03-01T07:58:41.949Z,60.88
2023-03-01T08:01:14.280Z,60.53
2023-03-01T08:03:44.253Z,59.71
2023-03-01T08:06:14.995Z,59.54
2023-03-01T08:08:44.149Z,60.33
2023-03-01T08:11:15.204Z,59.19
2023-03-01T08:13:45.089Z,59.20
2023-03-01T08:16:16.375Z,57.96
2023-03-01T08:18:45.789Z,57.89
2023-03-01T08:21:19.089Z,58.00
2023-03-01T08:23:48.249Z,58.55
2023-03-01T08:26:22.445Z,59.05
2023-03-01T08:28:52.194Z,58.84
2023-03-01T08:31:26.709Z,59.00
2023-03-01T08:33:58.195Z,59.02
2023-03-01T08:36:29.649Z,58.38
2023-03-01T08:38:59.200Z,57.64
2023-03-01T08:41:28.146Z,56.69
2023-03-01T08:44:00.599Z,57.14
2023-03-01T08:46:31.763Z,56.33
2023-03-01T08:49:01.261Z,56.00
2023-03-01T08:51:31.019Z,56.42
2023-03-01T08:53:59.939Z,56.89
2023-03-01T08:56:28.960Z,55.78
2023-03-01T08:58:57.918Z,55.52
2023-03-01T09:01:27.087Z,54.70
2023-03-01T09:03:56.300Z,54.87
2023-03-01T09:06:25.552Z,53.45
2023-03-01T09:08:54.621Z,52.69
2023-03-01T09:11:24.627Z,52.27
2023-03-01T09:13:53.841Z,52.36
2023-03-01T09:16:24.394Z,51.80
2023-03-01T09:18:55.072Z,52.21
2023-03-01T09:21:39.064Z,53.06
2023-03-01T09:24:15.650Z,51.30
2023-03-01T09:26:45.295Z,50.16
2023-03-01T09:29:14.204Z,49.63
2023-03-01T09:31:44.285Z,48.68
2023-03-01T09:34:13.172Z,50.51
2023-03-01T09:36:42.153Z,50.55
2023-03-01T09:39:13.104Z,50.13
2023-03-01T09:42:01.730Z,50.64
2023-03-01T09:44:54.033Z,49.53
2023-03-01T09:47:25.875Z,48.83
2023-03-01T09:50:07.095Z,49.51
2023-03-01T09:52:44.089Z,49.88
2023-03-01T09:55:19.951Z,50.74
2023-03-01T09:58:11.455Z,49.42
2023-03-01T10:00:50.058Z,49.88
2023-03-01T10:03:34.076Z,50.94
2023-03-01T10:06:06.891Z,51.48
2023-03-01T10:08:43.580Z,49.23
2023-03-01T10:11:22.634Z,49.09
2023-03-01T10:14:05.681Z,48.66
2023-03-01T10:17:09.679Z,49.49
2023-03-01T10:19:45.296Z,50.00
2023-03-01T10:22:20.115Z,49.49
2023-03-01T10:24:49.674Z,49.58
2023-03-01T10:27:46.450Z,49.60
2023-03-01T10:30:41.234Z,48.75
2023-03-01T10:33:21.866Z,50.15
2023-03-01T10:35:51.133Z,49.97
2023-03-01T10:38:24.617Z,50.88
2023-03-01T10:41:01.344Z,50.00
2023-03-01T10:43:50.365Z,50.94
2023-03-01T10:46:35.664Z,50.92
2023-03-01T10:49:16.563Z,51.39
2023-03-01T10:51:48.244Z,52.10
2023-03-01T10:54:35.285Z,52.31
2023-03-01T10:57:06.359Z,52.10
2023-03-01T10:59:37.600Z,52.04
2023-03-01T11:02:23.794Z,52.94
2023-03-01T11:05:00.606Z,52.65
2023-03-01T11:07:30.527Z,53.10
2023-03-01T11:09:59.391Z,52.82
2023-03-01T11:12:31.579Z,52.82
2023-03-01T11:15:00.802Z,52.85
2023-03-01T11:17:41.650Z,53.34
2023-03-01T11:20:16.938Z,53.15
2023-03-01T11:23:03.680Z,52.73
2023-03-01T11:25:39.418Z,53.81
2023-03-01T11:28:13.129Z,53.64
2023-03-01T11:31:07.731Z,53.42
2023-03-01T11:33:58.437Z,53.95
2023-03-01T11:36:33.404Z,54.06
2023-03-01T11:39:19.825Z,54.23
2023-03-01T11:41:54.973Z,53.77
2023-03-01T11:44:30.675Z,53.81
2023-03-01T11:46:59.603Z,54.57
2023-03-01T11:50:00.059Z,54.48
2023-03-01T11:52:29.025Z,55.15
2023-03-01T11:55:39.827Z,57.14
2023-03-01T11:58:43.617Z,58.97
2023-03-01T12:01:15.460Z,59.91
2023-03-01T12:04:12.589Z,58.96
2023-03-01T12:06:59.429Z,59.48
2023-03-01T12:09:33.932Z,59.13
2023-03-01T12:12:29.321Z,59.36
2023-03-01T12:15:31.828Z,59.42
2023-03-01T12:18:07.017Z,59.68
2023-03-01T12:20:45.602Z,59.93
2023-03-01T12:23:35.448Z,60.44
2023-03-01T12:26:09.770Z,61.03
2023-03-01T12:29:08.093Z,60.80
2023-03-01T12:31:59.014Z,61.51
2023-03-01T12:34:51.726Z,61.15
2023-03-01T12:37:39.443Z,61.76
2023-03-01T12:40:14.791Z,62.40
2023-03-01T12:42:53.870Z,62.70
2023-03-01T12:45:45.784Z,61.91
2023-03-01T12:48:37.796Z,61.73
2023-03-01T12:51:16.360Z,63.08
2023-03-01T12:53:55.688Z,63.16
2023-03-01T12:56:27.879Z,64.40
2023-03-01T12:59:18.160Z,64.45
2023-03-01T13:02:28.690Z,65.72
2023-03-01T13:05:20.750Z,67.14
2023-03-01T13:08:00.177Z,67.40
2023-03-01T13:11:03.892Z,68.08
2023-03-01T13:13:33.959Z,68.53
2023-03-01T13:16:46.948Z,68.32
2023-03-01T13:19:17.772Z,67.92
2023-03-01T13:21:48.880Z,69.40
2023-03-01T13:24:41.965Z,69.50
2023-03-01T13:27:31.276Z,69.21
2023-03-01T13:30:05.433Z,69.17
2023-03-01T13:32:49.165Z,68.97
2023-03-01T13:35:23.256Z,69.77
2023-03-01T13:37:52.398Z,69.72
2023-03-01T13:40:21.198Z,69.37
2023-03-01T13:43:04.643Z,69.40
2023-03-01T13:45:42.420Z,70.89
2023-03-01T13:48:31.494Z,70.53
2023-03-01T13:51:13.147Z,70.58
2023-03-01T13:53:48.757Z,71.65
2023-03-01T13:56:27.289Z,71.82
2023-03-01T13:58:59.281Z,73.27
2023-03-01T14:01:30.575Z,73.21
2023-03-01T14:04:01.017Z,73.63
2023-03-01T14:06:33.635Z,73.85
2023-03-01T14:09:05.106Z,73.19
2023-03-01T14:11:46.268Z,74.81
2023-03-01T14:14:50.555Z,74.39
2023-03-01T14:17:44.216Z,73.99
2023-03-01T14:20:28.166Z,74.15
2023-03-01T14:23:11.542Z,74.67
2023-03-01T14:25:48.344Z,74.67
2023-03-01T14:28:21.921Z,74.24
2023-03-01T14:30:53.810Z,73.92
2023-03-01T14:33:30.994Z,73.72
2023-03-01T14:36:11.917Z,73.40
2023-03-01T14:38:48.918Z,73.61
2023-03-01T14:41:22.278Z,73.34
2023-03-01T14:43:59.941Z,73.39
2023-03-01T14:46:34.279Z,73.51
2023-03-01T14:49:21.673Z,73.50
2023-03-01T14:52:10.121Z,73.24
2023-03-01T14:54:47.049Z,73.75
2023-03-01T14:57:34.212Z,73.58
2023-03-01T15:00:08.599Z,73.59
2023-03-01T15:02:39.578Z,73.84
2023-03-01T15:05:10.175Z,74.12
2023-03-01T15:07:43.667Z,74.15
2023-03-01T15:10:23.649Z,73.62
2023-03-01T15:12:54.750Z,73.48
2023-03-01T15:15:40.556Z,73.22
2023-03-01T15:18:37.121Z,72.59
2023-03-01T15:21:20.596Z,72.42
2023-03-01T15:23:57.517Z,72.79
2023-03-01T15:26:57.152Z,72.59
2023-03-01T15:29:35.363Z,72.83
2023-03-01T15:32:08.743Z,73.58
2023-03-01T15:34:40.062Z,72.46
2023-03-01T15:37:41.010Z,71.90
2023-03-01T15:40:35.000Z,71.44
2023-03-01T15:43:06.750Z,72.17
2023-03-01T15:45:36.195Z,71.38
2023-03-01T15:48:22.036Z,71.18
2023-03-01T15:51:00.631Z,71.04
2023-03-01T15:53:30.641Z,71.12
2023-03-01T15:55:59.380Z,71.57
2023-03-01T15:58:28.442Z,71.16
2023-03-01T16:01:02.324Z,70.28
2023-03-01T16:03:31.799Z,71.07
2023-03-01T16:06:00.525Z,71.14
2023-03-01T16:08:29.711Z,70.65
2023-03-01T16:10:58.422Z,71.20
2023-03-01T16:13:29.073Z,71.20
2023-03-01T16:15:58.422Z,71.26
2023-03-01T16:18:30.056Z,71.36
2023-03-01T16:20:59.052Z,70.92
2023-03-01T16:23:27.744Z,71.45
2023-03-01T16:26:00.837Z,71.81
2023-03-01T16:28:30.322Z,71.90
2023-03-01T16:30:59.229Z,71.67
2023-03-01T16:33:33.841Z,71.53
2023-03-01T16:36:09.115Z,71.37
2023-03-01T16:38:38.983Z,71.67
2023-03-01T16:41:07.801Z,72.10
2023-03-01T16:43:36.807Z,71.76
2023-03-01T16:46:16.059Z,71.96
2023-03-01T16:48:44.985Z,71.96
2023-03-01T16:51:14.635Z,71.72
2023-03-01T16:53:45.614Z,72.31
2023-03-01T16:56:16.357Z,71.71
2023-03-01T16:58:46.036Z,71.70
2023-03-01T17:01:18.328Z,72.03
2023-03-01T17:03:49.333Z,71.54
2023-03-01T17:06:22.241Z,71.88
2023-03-01T17:08:51.628Z,72.01
2023-03-01T17:11:22.241Z,71.75
2023-03-01T17:13:51.253Z,71.87
2023-03-01T17:16:21.915Z,71.92
2023-03-01T17:18:51.201Z,72.06
2023-03-01T17:21:20.436Z,71.26
2023-03-01T17:23:51.243Z,71.67
2023-03-01T17:26:20.160Z,71.45
2023-03-01T17:28:52.776Z,71.17
2023-03-01T17:31:22.548Z,70.90
2023-03-01T17:33:52.084Z,70.49
2023-03-01T17:36:21.108Z,71.00
2023-03-01T17:38:50.780Z,70.92
2023-03-01T17:41:20.373Z,71.30
2023-03-01T17:43:49.452Z,71.45
2023-03-01T17:46:18.251Z,71.35
2023-03-01T17:48:47.311Z,71.38
2023-03-01T17:51:16.086Z,71.53
2023-03-01T17:53:45.045Z,70.99
2023-03-01T17:56:13.795Z,71.07
2023-03-01T17:58:42.932Z,71.84
2023-03-01T18:01:17.831Z,72.40
2023-03-01T18:03:47.736Z,72.67
2023-03-01T18:06:19.889Z,73.34
2023-03-01T18:08:50.329Z,73.16
2023-03-01T18:11:20.635Z,73.86
2023-03-01T18:13:50.297Z,73.61
2023-03-01T18:16:21.555Z,73.51
2023-03-01T18:18:55.672Z,73.66
2023-03-01T18:21:25.418Z,73.53
2023-03-01T18:23:55.676Z,73.64
2023-03-01T18:26:25.889Z,73.53
2023-03-01T18:28:59.121Z,73.78
2023-03-01T18:31:28.558Z,73.64
2023-03-01T18:33:57.322Z,73.51
2023-03-01T18:36:27.727Z,73.93
2023-03-01T18:38:57.649Z,73.29
2023-03-01T18:41:29.030Z,73.44
2023-03-01T18:43:58.724Z,73.58
2023-03-01T18:46:27.697Z,73.42
2023-03-01T18:48:57.173Z,73.71
2023-03-01T18:51:29.176Z,73.42
2023-03-01T18:53:59.805Z,73.35
2023-03-01T18:56:31.684Z,73.74
2023-03-01T18:59:01.783Z,73.89
2023-03-01T19:01:33.007Z,73.93
2023-03-01T19:04:03.948Z,73.75
2023-03-01T19:06:35.818Z,74.48
2023-03-01T19:09:06.040Z,74.43
2023-03-01T19:11:36.428Z,74.34
2023-03-01T19:14:06.335Z,74.63
2023-03-01T19:16:36.780Z,74.53
2023-03-01T19:19:09.320Z,74.55
2023-03-01T19:21:38.280Z,74.18
2023-03-01T19:24:08.215Z,74.74
2023-03-01T19:26:37.448Z,75.28
2023-03-01T19:29:07.191Z,75.35
2023-03-01T19:31:36.141Z,75.63
2023-03-01T19:34:11.445Z,75.37
2023-03-01T19:36:43.555Z,75.88
2023-03-01T19:39:14.431Z,75.92
2023-03-01T19:41:44.402Z,75.97
2023-03-01T19:44:14.016Z,76.08
2023-03-01T19:46:43.542Z,76.08
2023-03-01T19:49:12.739Z,76.30
2023-03-01T19:51:41.559Z,76.67
2023-03-01T19:54:12.658Z,76.80
2023-03-01T19:56:42.132Z,77.67
2023-03-01T19:59:10.949Z,77.57
2023-03-01T20:01:43.233Z,78.11
2023-03-01T20:04:13.816Z,78.21
2023-03-01T20:06:45.621Z,78.02
2023-03-01T20:09:21.742Z,77.92
2023-03-01T20:11:52.543Z,78.30
2023-03-01T20:14:23.857Z,78.13
2023-03-01T20:16:53.927Z,78.37
2023-03-01T20:19:22.885Z,78.27
2023-03-01T20:21:51.978Z,78.37
2023-03-01T20:24:20.952Z,78.67
2023-03-01T20:26:49.969Z,78.40
2023-03-01T20:29:18.755Z,78.18
2023-03-01T20:31:47.867Z,78.13
2023-03-01T20:34:16.946Z,77.64
2023-03-01T20:36:46.030Z,77.55
2023-03-01T20:39:15.217Z,77.66
2023-03-01T20:41:44.168Z,76.89
2023-03-01T20:44:13.108Z,77.25
2023-03-01T20:46:42.307Z,77.08
2023-03-01T20:49:11.886Z,77.63
2023-03-01T20:51:40.926Z,77.55
2023-03-01T20:54:11.516Z,77.60
2023-03-01T20:56:40.543Z,77.81
2023-03-01T20:59:10.725Z,77.83
2023-03-01T21:01:40.888Z,77.77
2023-03-01T21:04:10.821Z,77.85
2023-03-01T21:06:40.082Z,77.62
2023-03-01T21:09:09.063Z,77.57
2023-03-01T21:11:37.955Z,77.94
2023-03-01T21:14:06.807Z,77.38
2023-03-01T21:16:36.453Z,77.35
2023-03-01T21:19:09.009Z,76.99
2023-03-01T21:21:40.473Z,77.18
2023-03-01T21:24:11.411Z,77.18
2023-03-01T21:26:40.583Z,77.00
2023-03-01T21:29:09.399Z,77.28
2023-03-01T21:31:38.544Z,76.93
2023-03-01T21:34:08.207Z,76.94
2023-03-01T21:36:37.191Z,76.84
2023-03-01T21:39:07.340Z,77.19
2023-03-01T21:41:38.628Z,77.04
2023-03-01T21:44:08.913Z,77.56
2023-03-01T21:46:40.331Z,77.07
2023-03-01T21:49:09.708Z,77.48
2023-03-01T21:51:38.545Z,77.12
2023-03-01T21:54:08.344Z,77.93
2023-03-01T21:56:39.740Z,78.42
2023-03-01T21:59:13.527Z,78.76
2023-03-01T22:01:43.042Z,78.14
2023-03-01T22:04:14.012Z,77.80
2023-03-01T22:06:45.511Z,78.09
2023-03-01T22:09:20.849Z,78.67
2023-03-01T22:11:54.792Z,78.51
2023-03-01T22:14:23.949Z,78.35
2023-03-01T22:16:52.799Z,77.65
2023-03-01T22:19:22.777Z,77.96
2023-03-01T22:21:53.422Z,78.26
2023-03-01T22:24:25.178Z,78.39
2023-03-01T22:26:55.469Z,77.88
2023-03-01T22:29:30.314Z,78.10
2023-03-01T22:32:00.508Z,78.00
2023-03-01T22:34:30.122Z,78.07
2023-03-01T22:36:59.522Z,77.71
2023-03-01T22:39:28.523Z,77.62
2023-03-01T22:41:57.204Z,78.04
2023-03-01T22:44:26.675Z,78.32
2023-03-01T22:46:55.461Z,78.50
2023-03-01T22:49:24.549Z,78.48
2023-03-01T22:51:53.626Z,78.33
2023-03-01T22:54:22.944Z,78.91
2023-03-01T22:56:51.767Z,78.72
2023-03-01T22:59:25.861Z,78.44
2023-03-01T23:01:55.969Z,78.45
2023-03-01T23:04:25.289Z,78.92
2023-03-01T23:06:57.699Z,79.29
2023-03-01T23:09:26.564Z,78.58
2023-03-01T23:11:56.024Z,78.78
2023-03-01T23:14:26.318Z,79.65
2023-03-01T23:16:55.351Z,79.28
2023-03-01T23:19:24.688Z,79.31
2023-03-01T23:21:55.300Z,79.66
2023-03-01T23:24:32.376Z,79.44
2023-03-01T23:27:02.957Z,79.72
2023-03-01T23:29:32.743Z,79.42
2023-03-01T23:32:02.426Z,79.83
2023-03-01T23:34:31.601Z,79.74
2023-03-01T23:37:00.300Z,79.48
2023-03-01T23:39:30.824Z,79.31
2023-03-01T23:42:00.072Z,79.35
2023-03-01T23:44:28.845Z,79.78
2023-03-01T23:46:57.727Z,79.65
2023-03-01T23:49:26.537Z,79.83
2023-03-01T23:51:55.522Z,79.52
2023-03-01T23:54:25.638Z,79.99
2023-03-01T23:56:54.812Z,80.80
2023-03-01T23:59:25.508Z,80.16
